EGGDEYKA

Guest
Details From EGGD - Bristol International
To EYKA - Kaunas Intl
Flight Number -
Tags decoded
Created
Modified
Stats Distance 982 nm / 1,819 km
Max Altitude 0 ft / 0 m
Waypoints 2
Social Downloads 0
Likes 0
Share VATSIM

Download

Looking for another format? Having issues loading an existing format? Contact us
Advertisement - Login to hide

Notes

Requested: EGGD EYKA

Route

EGGD EYKA

ID Type Via Altitude Latitude Longitude Leg Dist Tot Dist Heading (true) Name
O EGGD APT - 0 ft / 0 m 51.38266˚ -2.71892˚ - 0 nm - Bristol International
O EYKA APT - 0 ft / 0 m 54.96388˚ 24.08400˚ 982 nm 982 nm 67° / 88° Kaunas Intl

Altitude Profile

Advertisement - Login to hide

Weather


0- 5 10 15 20 25 30 35+ Temperature / ° C

Clouds and Precipitation
Forecast for 2018-05-27 00:00 UTC. Updated an hour ago

Ground ~20,000 ft ~40,000 ft Winds

EGGD

Details ICAO EGGD (BRS)
Name Bristol International
Region United Kingdom
Timezone Europe/London (UTC+1.0)
Stats Elevation 622 ft / 190 m (AMSL)
Location 51.382658° -2.718918°
Runways 1
Magnetic Variation 1.283° W

METAR

EGGD 270020Z AUTO 04016KT 9999 -RA NCD 15/14 Q1015

Decode

TAF

TAF EGGD 262300Z 2700/2724 04013KT 9999 SCT020 TEMPO 2700/2707 03016G26KT 4000 +SHRA TSRA BKN009 BKN045CB PROB40 TEMPO 2700/2702 1200 +TSGR BKN004 BECMG 2703/2705 6000 PROB40 TEMPO 2703/2709 3000 BR SCT001 BKN002 TEMPO 2707/2719 5000 TSRA BKN014 BKN045CB PROB40 TEMPO 2707/2719 VRB15G25KT 2000 +SHRA TSGR BKN009 BECMG 2709/2712 9999 BECMG 2715/2718 12008KT

Decode

Departure Runways

ID Width Length Bearing (true) Bearing (mag) Surface Threshold Offset Overrun Length
09 148 ft / 45 m 6,655 ft / 2,029 m 86.42° 87.70° Asphalt 0 ft / 0 m 0 ft / 0 m
27 148 ft / 45 m 6,655 ft / 2,029 m 266.44° 267.72° Asphalt 499 ft / 152 m 0 ft / 0 m

EYKA

Details ICAO EYKA (KUN)
Name Kaunas Intl
Region Lithuania
Timezone Europe/Vilnius (UTC+3.0)
Stats Elevation 256 ft / 78 m (AMSL)
Location 54.963881° 24.084001°
Runways 1
Magnetic Variation 7.270° E

METAR

EYKA 270020Z AUTO 08002KT 9999 NCD 13/09 Q1025

Decode

TAF

TAF EYKA 262300Z 2700/2724 VRB05KT CAVOK= �

Decode

Destination Runways

ID Width Length Bearing (true) Bearing (mag) Surface Threshold Offset Overrun Length
08 148 ft / 45 m 10,309 ft / 3,142 m 85.05° 77.78° Asphalt 1,116 ft / 340 m 240 ft / 73 m
26 148 ft / 45 m 10,309 ft / 3,142 m 265.09° 257.82° Asphalt 789 ft / 240 m 240 ft / 73 m

Approach Navaids

Runway Type Ident Frequency Range Bearing (true) Bearing (mag) Slope Elevation
08 Localiser IKM 109.50 MHz 18 nm / 33 km 85.09° 77.82° - 256 ft / 78 m (AMSL)
08 Glidescope IKM 109.50 MHz 10 nm / 19 km 85.07° 77.80° 3.00° 256 ft / 78 m (AMSL)
26 Localiser ISE 109.90 MHz 18 nm / 33 km 265.04° 257.77° - 256 ft / 78 m (AMSL)
26 Glidescope ISE 109.90 MHz 10 nm / 19 km 265.07° 257.80° 3.00° 256 ft / 78 m (AMSL)

Popular Alternatives